sensor_id;sensor_type;location;lat;lon;timestamp;P1;durP1;ratioP1;P2;durP2;ratioP2
64619;SDS011;51029;51.058;13.826;2023-04-06T00:00:35;6.93;;;5.50;;
64619;SDS011;51029;51.058;13.826;2023-04-06T00:03:01;7.43;;;6.00;;
64619;SDS011;51029;51.058;13.826;2023-04-06T00:05:26;6.37;;;5.60;;
64619;SDS011;51029;51.058;13.826;2023-04-06T00:07:52;7.80;;;5.47;;
64619;SDS011;51029;51.058;13.826;2023-04-06T00:10:20;7.23;;;5.30;;
64619;SDS011;51029;51.058;13.826;2023-04-06T00:12:46;8.07;;;5.63;;
64619;SDS011;51029;51.058;13.826;2023-04-06T00:15:11;6.37;;;5.33;;
64619;SDS011;51029;51.058;13.826;2023-04-06T00:17:37;6.70;;;5.27;;
64619;SDS011;51029;51.058;13.826;2023-04-06T00:20:02;7.40;;;5.30;;
64619;SDS011;51029;51.058;13.826;2023-04-06T00:22:29;6.00;;;5.17;;
64619;SDS011;51029;51.058;13.826;2023-04-06T00:24:54;6.13;;;4.40;;
64619;SDS011;51029;51.058;13.826;2023-04-06T00:27:20;7.10;;;5.27;;
64619;SDS011;51029;51.058;13.826;2023-04-06T00:29:45;5.43;;;4.90;;
64619;SDS011;51029;51.058;13.826;2023-04-06T00:32:11;5.73;;;4.90;;
64619;SDS011;51029;51.058;13.826;2023-04-06T00:34:36;8.17;;;4.87;;
64619;SDS011;51029;51.058;13.826;2023-04-06T00:37:02;7.10;;;5.37;;
64619;SDS011;51029;51.058;13.826;2023-04-06T00:39:27;6.07;;;5.00;;
64619;SDS011;51029;51.058;13.826;2023-04-06T00:41:53;5.83;;;4.77;;
64619;SDS011;51029;51.058;13.826;2023-04-06T00:44:20;5.77;;;4.73;;
64619;SDS011;51029;51.058;13.826;2023-04-06T00:46:46;7.13;;;4.77;;
64619;SDS011;51029;51.058;13.826;2023-04-06T00:49:12;6.90;;;4.67;;
64619;SDS011;51029;51.058;13.826;2023-04-06T00:51:37;7.47;;;5.03;;
64619;SDS011;51029;51.058;13.826;2023-04-06T00:54:03;7.60;;;5.60;;
64619;SDS011;51029;51.058;13.826;2023-04-06T00:56:28;7.07;;;5.63;;
64619;SDS011;51029;51.058;13.826;2023-04-06T00:58:54;6.70;;;5.80;;
64619;SDS011;51029;51.058;13.826;2023-04-06T01:01:20;8.33;;;6.60;;
64619;SDS011;51029;51.058;13.826;2023-04-06T01:03:46;7.30;;;5.93;;
64619;SDS011;51029;51.058;13.826;2023-04-06T01:06:14;6.13;;;5.53;;
64619;SDS011;51029;51.058;13.826;2023-04-06T01:08:41;8.37;;;5.73;;
64619;SDS011;51029;51.058;13.826;2023-04-06T01:11:06;8.93;;;6.10;;
64619;SDS011;51029;51.058;13.826;2023-04-06T01:13:32;6.00;;;5.00;;
64619;SDS011;51029;51.058;13.826;2023-04-06T01:15:58;7.53;;;5.63;;
64619;SDS011;51029;51.058;13.826;2023-04-06T01:18:26;6.33;;;4.77;;
64619;SDS011;51029;51.058;13.826;2023-04-06T01:24:15;5.07;;;4.57;;
64619;SDS011;51029;51.058;13.826;2023-04-06T01:26:40;7.30;;;4.40;;
64619;SDS011;51029;51.058;13.826;2023-04-06T01:29:09;6.20;;;5.00;;
64619;SDS011;51029;51.058;13.826;2023-04-06T01:31:34;5.93;;;4.30;;
64619;SDS011;51029;51.058;13.826;2023-04-06T01:34:00;5.43;;;4.93;;
64619;SDS011;51029;51.058;13.826;2023-04-06T01:36:25;5.47;;;4.63;;
64619;SDS011;51029;51.058;13.826;2023-04-06T01:38:51;6.27;;;4.80;;
64619;SDS011;51029;51.058;13.826;2023-04-06T01:41:17;5.33;;;4.67;;
64619;SDS011;51029;51.058;13.826;2023-04-06T01:43:42;8.47;;;4.57;;
64619;SDS011;51029;51.058;13.826;2023-04-06T01:46:09;5.97;;;4.63;;
64619;SDS011;51029;51.058;13.826;2023-04-06T01:48:35;5.90;;;4.97;;
64619;SDS011;51029;51.058;13.826;2023-04-06T01:51:01;6.10;;;4.90;;
64619;SDS011;51029;51.058;13.826;2023-04-06T01:53:26;7.20;;;4.83;;
64619;SDS011;51029;51.058;13.826;2023-04-06T01:55:52;4.50;;;4.10;;
64619;SDS011;51029;51.058;13.826;2023-04-06T01:58:17;5.17;;;4.63;;
64619;SDS011;51029;51.058;13.826;2023-04-06T02:00:43;5.13;;;4.50;;
64619;SDS011;51029;51.058;13.826;2023-04-06T02:03:08;4.87;;;3.97;;
64619;SDS011;51029;51.058;13.826;2023-04-06T02:05:34;5.63;;;4.53;;
64619;SDS011;51029;51.058;13.826;2023-04-06T02:08:03;4.77;;;4.27;;
64619;SDS011;51029;51.058;13.826;2023-04-06T02:10:30;5.20;;;4.40;;
64619;SDS011;51029;51.058;13.826;2023-04-06T02:12:56;6.93;;;4.40;;
64619;SDS011;51029;51.058;13.826;2023-04-06T02:15:21;9.33;;;4.70;;
64619;SDS011;51029;51.058;13.826;2023-04-06T02:17:47;4.83;;;4.40;;
64619;SDS011;51029;51.058;13.826;2023-04-06T02:20:12;6.03;;;4.77;;
64619;SDS011;51029;51.058;13.826;2023-04-06T02:22:38;6.60;;;4.90;;
64619;SDS011;51029;51.058;13.826;2023-04-06T02:25:04;5.70;;;4.73;;
64619;SDS011;51029;51.058;13.826;2023-04-06T02:27:29;5.07;;;4.37;;
64619;SDS011;51029;51.058;13.826;2023-04-06T02:29:55;6.30;;;5.07;;
64619;SDS011;51029;51.058;13.826;2023-04-06T02:32:20;6.93;;;4.40;;
64619;SDS011;51029;51.058;13.826;2023-04-06T02:34:46;6.63;;;5.03;;
64619;SDS011;51029;51.058;13.826;2023-04-06T02:37:11;5.37;;;4.50;;
64619;SDS011;51029;51.058;13.826;2023-04-06T02:39:37;6.70;;;4.83;;
64619;SDS011;51029;51.058;13.826;2023-04-06T02:42:02;5.43;;;4.17;;
64619;SDS011;51029;51.058;13.826;2023-04-06T02:44:29;6.90;;;4.97;;
64619;SDS011;51029;51.058;13.826;2023-04-06T02:46:54;5.40;;;4.80;;
64619;SDS011;51029;51.058;13.826;2023-04-06T02:49:20;6.17;;;4.93;;
64619;SDS011;51029;51.058;13.826;2023-04-06T02:51:45;6.67;;;4.90;;
64619;SDS011;51029;51.058;13.826;2023-04-06T02:54:11;7.60;;;4.77;;
64619;SDS011;51029;51.058;13.826;2023-04-06T02:56:36;5.67;;;4.50;;
64619;SDS011;51029;51.058;13.826;2023-04-06T02:59:02;5.50;;;4.80;;
64619;SDS011;51029;51.058;13.826;2023-04-06T03:01:27;6.70;;;5.10;;
64619;SDS011;51029;51.058;13.826;2023-04-06T03:03:53;10.07;;;5.23;;
64619;SDS011;51029;51.058;13.826;2023-04-06T03:06:18;6.10;;;4.63;;
64619;SDS011;51029;51.058;13.826;2023-04-06T03:08:44;6.30;;;4.57;;
64619;SDS011;51029;51.058;13.826;2023-04-06T03:11:10;7.17;;;4.47;;
64619;SDS011;51029;51.058;13.826;2023-04-06T03:13:36;9.10;;;5.47;;
64619;SDS011;51029;51.058;13.826;2023-04-06T03:16:03;5.43;;;4.73;;
64619;SDS011;51029;51.058;13.826;2023-04-06T03:18:29;7.33;;;5.40;;
64619;SDS011;51029;51.058;13.826;2023-04-06T03:20:55;9.10;;;4.87;;
64619;SDS011;51029;51.058;13.826;2023-04-06T03:23:20;6.57;;;4.73;;
64619;SDS011;51029;51.058;13.826;2023-04-06T03:25:46;6.93;;;5.10;;
64619;SDS011;51029;51.058;13.826;2023-04-06T03:28:12;8.57;;;4.90;;
64619;SDS011;51029;51.058;13.826;2023-04-06T03:30:37;6.07;;;4.87;;
64619;SDS011;51029;51.058;13.826;2023-04-06T03:33:03;8.10;;;5.50;;
64619;SDS011;51029;51.058;13.826;2023-04-06T03:35:29;5.97;;;4.97;;
64619;SDS011;51029;51.058;13.826;2023-04-06T03:37:54;7.20;;;5.27;;
64619;SDS011;51029;51.058;13.826;2023-04-06T03:40:20;7.13;;;5.10;;
64619;SDS011;51029;51.058;13.826;2023-04-06T03:42:45;6.50;;;4.83;;
64619;SDS011;51029;51.058;13.826;2023-04-06T03:45:11;7.40;;;5.33;;
64619;SDS011;51029;51.058;13.826;2023-04-06T03:47:38;5.97;;;5.10;;
64619;SDS011;51029;51.058;13.826;2023-04-06T03:50:03;7.43;;;5.50;;
64619;SDS011;51029;51.058;13.826;2023-04-06T03:52:29;6.37;;;5.77;;
64619;SDS011;51029;51.058;13.826;2023-04-06T03:54:55;7.70;;;5.53;;
64619;SDS011;51029;51.058;13.826;2023-04-06T03:57:20;7.07;;;5.60;;
64619;SDS011;51029;51.058;13.826;2023-04-06T03:59:46;7.93;;;6.13;;
64619;SDS011;51029;51.058;13.826;2023-04-06T04:02:11;6.50;;;5.80;;
64619;SDS011;51029;51.058;13.826;2023-04-06T04:04:37;6.83;;;5.50;;
64619;SDS011;51029;51.058;13.826;2023-04-06T04:07:03;9.37;;;6.03;;
64619;SDS011;51029;51.058;13.826;2023-04-06T04:09:28;7.97;;;5.90;;
64619;SDS011;51029;51.058;13.826;2023-04-06T04:11:53;7.10;;;5.77;;
64619;SDS011;51029;51.058;13.826;2023-04-06T04:14:19;8.93;;;5.87;;
64619;SDS011;51029;51.058;13.826;2023-04-06T04:16:45;10.40;;;6.57;;
64619;SDS011;51029;51.058;13.826;2023-04-06T04:19:10;10.53;;;6.30;;
64619;SDS011;51029;51.058;13.826;2023-04-06T04:21:41;9.67;;;6.17;;
64619;SDS011;51029;51.058;13.826;2023-04-06T04:24:08;10.27;;;6.70;;
64619;SDS011;51029;51.058;13.826;2023-04-06T04:26:34;8.80;;;6.33;;
64619;SDS011;51029;51.058;13.826;2023-04-06T04:29:00;10.03;;;6.87;;
64619;SDS011;51029;51.058;13.826;2023-04-06T04:31:25;7.10;;;6.20;;
64619;SDS011;51029;51.058;13.826;2023-04-06T04:33:51;9.83;;;6.57;;
64619;SDS011;51029;51.058;13.826;2023-04-06T04:36:16;9.77;;;7.37;;
64619;SDS011;51029;51.058;13.826;2023-04-06T04:38:42;8.50;;;6.37;;
64619;SDS011;51029;51.058;13.826;2023-04-06T04:41:07;13.33;;;7.23;;
64619;SDS011;51029;51.058;13.826;2023-04-06T04:43:33;9.50;;;7.20;;
64619;SDS011;51029;51.058;13.826;2023-04-06T04:45:58;9.67;;;7.57;;
64619;SDS011;51029;51.058;13.826;2023-04-06T04:48:24;8.20;;;7.03;;
64619;SDS011;51029;51.058;13.826;2023-04-06T04:50:50;9.30;;;7.27;;
64619;SDS011;51029;51.058;13.826;2023-04-06T04:53:15;11.43;;;7.83;;
64619;SDS011;51029;51.058;13.826;2023-04-06T04:55:41;10.83;;;7.23;;
64619;SDS011;51029;51.058;13.826;2023-04-06T04:58:06;8.17;;;6.53;;
64619;SDS011;51029;51.058;13.826;2023-04-06T05:00:33;14.20;;;7.00;;
64619;SDS011;51029;51.058;13.826;2023-04-06T05:02:59;9.67;;;7.37;;
64619;SDS011;51029;51.058;13.826;2023-04-06T05:05:25;9.60;;;7.50;;
64619;SDS011;51029;51.058;13.826;2023-04-06T05:07:50;11.17;;;7.30;;
64619;SDS011;51029;51.058;13.826;2023-04-06T05:10:16;11.15;;;7.20;;
64619;SDS011;51029;51.058;13.826;2023-04-06T05:12:41;21.00;;;14.67;;
64619;SDS011;51029;51.058;13.826;2023-04-06T05:15:07;19.90;;;13.83;;
64619;SDS011;51029;51.058;13.826;2023-04-06T05:17:33;11.00;;;7.10;;
64619;SDS011;51029;51.058;13.826;2023-04-06T05:19:59;10.43;;;7.03;;
64619;SDS011;51029;51.058;13.826;2023-04-06T05:22:25;11.40;;;7.07;;
64619;SDS011;51029;51.058;13.826;2023-04-06T05:24:51;9.53;;;7.27;;
64619;SDS011;51029;51.058;13.826;2023-04-06T05:27:16;12.27;;;8.30;;
64619;SDS011;51029;51.058;13.826;2023-04-06T05:29:42;10.43;;;8.03;;
64619;SDS011;51029;51.058;13.826;2023-04-06T05:32:07;11.07;;;8.87;;
64619;SDS011;51029;51.058;13.826;2023-04-06T05:34:33;9.47;;;7.70;;
64619;SDS011;51029;51.058;13.826;2023-04-06T05:36:58;10.23;;;8.17;;
64619;SDS011;51029;51.058;13.826;2023-04-06T05:39:24;14.07;;;8.93;;
64619;SDS011;51029;51.058;13.826;2023-04-06T05:41:49;10.97;;;8.23;;
64619;SDS011;51029;51.058;13.826;2023-04-06T05:44:15;13.47;;;8.70;;
64619;SDS011;51029;51.058;13.826;2023-04-06T05:46:40;14.90;;;9.07;;
64619;SDS011;51029;51.058;13.826;2023-04-06T05:49:06;11.27;;;9.27;;
64619;SDS011;51029;51.058;13.826;2023-04-06T05:51:31;13.10;;;8.87;;
64619;SDS011;51029;51.058;13.826;2023-04-06T05:53:58;12.97;;;9.20;;
64619;SDS011;51029;51.058;13.826;2023-04-06T05:56:24;14.33;;;11.10;;
64619;SDS011;51029;51.058;13.826;2023-04-06T05:58:50;14.40;;;10.40;;
64619;SDS011;51029;51.058;13.826;2023-04-06T06:01:15;14.07;;;9.30;;
64619;SDS011;51029;51.058;13.826;2023-04-06T06:03:41;12.33;;;9.27;;
64619;SDS011;51029;51.058;13.826;2023-04-06T06:06:06;11.43;;;8.60;;
64619;SDS011;51029;51.058;13.826;2023-04-06T06:08:32;11.83;;;9.40;;
64619;SDS011;51029;51.058;13.826;2023-04-06T06:10:57;10.73;;;8.47;;
64619;SDS011;51029;51.058;13.826;2023-04-06T06:13:23;10.53;;;8.10;;
64619;SDS011;51029;51.058;13.826;2023-04-06T06:15:49;10.80;;;7.97;;
64619;SDS011;51029;51.058;13.826;2023-04-06T06:18:15;11.10;;;8.37;;
64619;SDS011;51029;51.058;13.826;2023-04-06T06:20:40;11.43;;;8.70;;
64619;SDS011;51029;51.058;13.826;2023-04-06T06:23:06;10.57;;;8.80;;
64619;SDS011;51029;51.058;13.826;2023-04-06T06:25:32;12.10;;;8.77;;
64619;SDS011;51029;51.058;13.826;2023-04-06T06:27:58;13.40;;;9.43;;
64619;SDS011;51029;51.058;13.826;2023-04-06T06:30:23;13.73;;;9.60;;
64619;SDS011;51029;51.058;13.826;2023-04-06T06:32:49;14.00;;;9.70;;
64619;SDS011;51029;51.058;13.826;2023-04-06T06:35:15;13.23;;;9.50;;
64619;SDS011;51029;51.058;13.826;2023-04-06T06:37:41;16.67;;;12.90;;
64619;SDS011;51029;51.058;13.826;2023-04-06T06:40:08;12.83;;;9.33;;
64619;SDS011;51029;51.058;13.826;2023-04-06T06:42:34;15.07;;;10.83;;
64619;SDS011;51029;51.058;13.826;2023-04-06T06:45:00;18.13;;;11.47;;
64619;SDS011;51029;51.058;13.826;2023-04-06T06:47:25;11.17;;;9.23;;
64619;SDS011;51029;51.058;13.826;2023-04-06T06:49:51;11.77;;;9.33;;
64619;SDS011;51029;51.058;13.826;2023-04-06T06:52:16;9.97;;;8.97;;
64619;SDS011;51029;51.058;13.826;2023-04-06T06:54:42;9.57;;;8.00;;
64619;SDS011;51029;51.058;13.826;2023-04-06T06:57:08;11.47;;;8.33;;
64619;SDS011;51029;51.058;13.826;2023-04-06T06:59:33;9.50;;;8.50;;
64619;SDS011;51029;51.058;13.826;2023-04-06T07:01:59;13.30;;;8.77;;
64619;SDS011;51029;51.058;13.826;2023-04-06T07:04:24;13.13;;;8.93;;
64619;SDS011;51029;51.058;13.826;2023-04-06T07:06:50;10.83;;;8.07;;
64619;SDS011;51029;51.058;13.826;2023-04-06T07:09:17;11.30;;;8.57;;
64619;SDS011;51029;51.058;13.826;2023-04-06T07:11:43;11.73;;;8.60;;
64619;SDS011;51029;51.058;13.826;2023-04-06T07:14:08;11.43;;;8.20;;
64619;SDS011;51029;51.058;13.826;2023-04-06T07:16:34;14.70;;;11.30;;
64619;SDS011;51029;51.058;13.826;2023-04-06T07:19:00;19.17;;;13.80;;
64619;SDS011;51029;51.058;13.826;2023-04-06T07:21:25;23.83;;;15.70;;
64619;SDS011;51029;51.058;13.826;2023-04-06T07:23:51;11.70;;;8.33;;
64619;SDS011;51029;51.058;13.826;2023-04-06T07:26:17;11.93;;;8.40;;
64619;SDS011;51029;51.058;13.826;2023-04-06T07:28:42;9.20;;;7.83;;
64619;SDS011;51029;51.058;13.826;2023-04-06T07:31:08;10.50;;;8.17;;
64619;SDS011;51029;51.058;13.826;2023-04-06T07:33:34;11.97;;;7.70;;
64619;SDS011;51029;51.058;13.826;2023-04-06T07:36:00;9.00;;;7.47;;
64619;SDS011;51029;51.058;13.826;2023-04-06T07:38:25;9.83;;;7.57;;
64619;SDS011;51029;51.058;13.826;2023-04-06T07:40:51;10.80;;;7.83;;
64619;SDS011;51029;51.058;13.826;2023-04-06T07:43:16;9.63;;;7.63;;
64619;SDS011;51029;51.058;13.826;2023-04-06T07:45:42;15.63;;;7.77;;
64619;SDS011;51029;51.058;13.826;2023-04-06T07:48:07;9.57;;;7.80;;
64619;SDS011;51029;51.058;13.826;2023-04-06T07:50:33;9.47;;;7.60;;
64619;SDS011;51029;51.058;13.826;2023-04-06T07:52:59;9.47;;;7.47;;
64619;SDS011;51029;51.058;13.826;2023-04-06T07:55:25;9.87;;;8.13;;
64619;SDS011;51029;51.058;13.826;2023-04-06T07:57:51;9.30;;;6.87;;
64619;SDS011;51029;51.058;13.826;2023-04-06T08:00:16;9.87;;;8.10;;
64619;SDS011;51029;51.058;13.826;2023-04-06T08:02:42;6.87;;;6.17;;
64619;SDS011;51029;51.058;13.826;2023-04-06T08:05:08;10.77;;;6.93;;
64619;SDS011;51029;51.058;13.826;2023-04-06T08:07:34;8.00;;;6.43;;
64619;SDS011;51029;51.058;13.826;2023-04-06T08:10:00;10.23;;;7.13;;
64619;SDS011;51029;51.058;13.826;2023-04-06T08:12:26;8.77;;;6.30;;
64619;SDS011;51029;51.058;13.826;2023-04-06T08:14:52;7.27;;;6.20;;
64619;SDS011;51029;51.058;13.826;2023-04-06T08:17:17;6.03;;;5.43;;
64619;SDS011;51029;51.058;13.826;2023-04-06T08:19:43;8.40;;;7.13;;
64619;SDS011;51029;51.058;13.826;2023-04-06T08:22:09;10.30;;;6.60;;
64619;SDS011;51029;51.058;13.826;2023-04-06T08:24:35;8.93;;;6.20;;
64619;SDS011;51029;51.058;13.826;2023-04-06T08:27:00;7.47;;;6.20;;
64619;SDS011;51029;51.058;13.826;2023-04-06T08:29:26;7.07;;;6.33;;
64619;SDS011;51029;51.058;13.826;2023-04-06T08:31:51;7.90;;;5.73;;
64619;SDS011;51029;51.058;13.826;2023-04-06T08:34:17;6.87;;;5.17;;
64619;SDS011;51029;51.058;13.826;2023-04-06T08:36:43;6.90;;;5.03;;
64619;SDS011;51029;51.058;13.826;2023-04-06T08:39:08;5.83;;;4.67;;
64619;SDS011;51029;51.058;13.826;2023-04-06T08:41:34;5.67;;;4.40;;
64619;SDS011;51029;51.058;13.826;2023-04-06T08:44:01;5.57;;;4.57;;
64619;SDS011;51029;51.058;13.826;2023-04-06T08:46:28;6.07;;;4.70;;
64619;SDS011;51029;51.058;13.826;2023-04-06T08:48:56;6.87;;;5.03;;
64619;SDS011;51029;51.058;13.826;2023-04-06T08:51:23;5.63;;;4.70;;
64619;SDS011;51029;51.058;13.826;2023-04-06T08:53:52;5.10;;;4.60;;
64619;SDS011;51029;51.058;13.826;2023-04-06T08:56:24;4.97;;;4.40;;
64619;SDS011;51029;51.058;13.826;2023-04-06T08:58:52;5.20;;;4.70;;
64619;SDS011;51029;51.058;13.826;2023-04-06T09:01:20;8.40;;;4.47;;
64619;SDS011;51029;51.058;13.826;2023-04-06T09:03:48;4.97;;;4.47;;
64619;SDS011;51029;51.058;13.826;2023-04-06T09:06:15;7.03;;;4.67;;
64619;SDS011;51029;51.058;13.826;2023-04-06T09:08:41;5.33;;;4.40;;
64619;SDS011;51029;51.058;13.826;2023-04-06T09:11:07;5.87;;;5.27;;
64619;SDS011;51029;51.058;13.826;2023-04-06T09:13:49;8.50;;;5.50;;
64619;SDS011;51029;51.058;13.826;2023-04-06T09:16:16;6.10;;;5.27;;
64619;SDS011;51029;51.058;13.826;2023-04-06T09:18:42;7.00;;;4.83;;
64619;SDS011;51029;51.058;13.826;2023-04-06T09:21:08;4.90;;;4.30;;
64619;SDS011;51029;51.058;13.826;2023-04-06T09:23:34;5.03;;;4.40;;
64619;SDS011;51029;51.058;13.826;2023-04-06T09:28:46;5.40;;;4.60;;
64619;SDS011;51029;51.058;13.826;2023-04-06T09:31:25;5.70;;;5.10;;
64619;SDS011;51029;51.058;13.826;2023-04-06T09:33:55;4.50;;;4.10;;
64619;SDS011;51029;51.058;13.826;2023-04-06T09:36:35;4.33;;;3.93;;
64619;SDS011;51029;51.058;13.826;2023-04-06T09:39:04;5.27;;;4.23;;
64619;SDS011;51029;51.058;13.826;2023-04-06T09:41:33;4.00;;;3.63;;
64619;SDS011;51029;51.058;13.826;2023-04-06T09:44:03;5.20;;;4.10;;
64619;SDS011;51029;51.058;13.826;2023-04-06T09:46:31;5.40;;;4.57;;
64619;SDS011;51029;51.058;13.826;2023-04-06T09:48:59;4.17;;;3.77;;
64619;SDS011;51029;51.058;13.826;2023-04-06T09:51:27;3.90;;;3.50;;
64619;SDS011;51029;51.058;13.826;2023-04-06T09:53:56;4.03;;;3.63;;
64619;SDS011;51029;51.058;13.826;2023-04-06T09:56:27;6.17;;;3.83;;
64619;SDS011;51029;51.058;13.826;2023-04-06T09:58:57;5.40;;;3.80;;
64619;SDS011;51029;51.058;13.826;2023-04-06T10:01:28;4.27;;;3.53;;
64619;SDS011;51029;51.058;13.826;2023-04-06T10:04:04;4.00;;;3.60;;
64619;SDS011;51029;51.058;13.826;2023-04-06T10:06:50;6.13;;;3.70;;
64619;SDS011;51029;51.058;13.826;2023-04-06T10:09:17;4.00;;;3.60;;
64619;SDS011;51029;51.058;13.826;2023-04-06T10:11:46;4.97;;;3.70;;
64619;SDS011;51029;51.058;13.826;2023-04-06T10:14:13;4.17;;;3.77;;
64619;SDS011;51029;51.058;13.826;2023-04-06T10:16:40;5.87;;;4.10;;
64619;SDS011;51029;51.058;13.826;2023-04-06T10:19:07;5.30;;;3.90;;
64619;SDS011;51029;51.058;13.826;2023-04-06T10:21:51;7.07;;;4.10;;
64619;SDS011;51029;51.058;13.826;2023-04-06T10:24:19;5.80;;;4.30;;
64619;SDS011;51029;51.058;13.826;2023-04-06T10:26:56;4.63;;;4.17;;
64619;SDS011;51029;51.058;13.826;2023-04-06T10:29:44;5.20;;;4.13;;
64619;SDS011;51029;51.058;13.826;2023-04-06T10:32:13;5.53;;;4.23;;
64619;SDS011;51029;51.058;13.826;2023-04-06T10:34:39;5.23;;;4.60;;
64619;SDS011;51029;51.058;13.826;2023-04-06T10:37:14;5.90;;;4.30;;
64619;SDS011;51029;51.058;13.826;2023-04-06T10:39:52;4.67;;;4.27;;
64619;SDS011;51029;51.058;13.826;2023-04-06T10:42:36;4.30;;;3.90;;
64619;SDS011;51029;51.058;13.826;2023-04-06T10:45:04;5.80;;;3.97;;
64619;SDS011;51029;51.058;13.826;2023-04-06T10:47:38;4.40;;;4.00;;
64619;SDS011;51029;51.058;13.826;2023-04-06T10:50:07;6.50;;;4.20;;
64619;SDS011;51029;51.058;13.826;2023-04-06T10:52:32;4.50;;;3.50;;
64619;SDS011;51029;51.058;13.826;2023-04-06T10:54:58;4.30;;;3.83;;
64619;SDS011;51029;51.058;13.826;2023-04-06T10:57:30;7.60;;;3.70;;
64619;SDS011;51029;51.058;13.826;2023-04-06T10:59:58;4.43;;;3.40;;
64619;SDS011;51029;51.058;13.826;2023-04-06T11:02:24;3.70;;;3.20;;
64619;SDS011;51029;51.058;13.826;2023-04-06T11:04:58;3.27;;;2.97;;
64619;SDS011;51029;51.058;13.826;2023-04-06T11:07:24;3.50;;;3.20;;
64619;SDS011;51029;51.058;13.826;2023-04-06T11:09:52;4.07;;;3.67;;
64619;SDS011;51029;51.058;13.826;2023-04-06T11:12:24;4.57;;;3.50;;
64619;SDS011;51029;51.058;13.826;2023-04-06T11:17:27;3.83;;;3.33;;
64619;SDS011;51029;51.058;13.826;2023-04-06T11:19:54;5.00;;;3.00;;
64619;SDS011;51029;51.058;13.826;2023-04-06T11:22:20;4.00;;;3.40;;
64619;SDS011;51029;51.058;13.826;2023-04-06T11:24:45;4.37;;;3.50;;
64619;SDS011;51029;51.058;13.826;2023-04-06T11:27:11;4.20;;;2.87;;
64619;SDS011;51029;51.058;13.826;2023-04-06T11:29:37;3.17;;;2.90;;
64619;SDS011;51029;51.058;13.826;2023-04-06T11:32:04;3.30;;;3.00;;
64619;SDS011;51029;51.058;13.826;2023-04-06T11:34:32;3.23;;;2.93;;
64619;SDS011;51029;51.058;13.826;2023-04-06T11:37:00;6.80;;;6.10;;
64619;SDS011;51029;51.058;13.826;2023-04-06T11:39:27;3.43;;;2.70;;
64619;SDS011;51029;51.058;13.826;2023-04-06T11:41:56;3.10;;;2.90;;
64619;SDS011;51029;51.058;13.826;2023-04-06T11:44:33;3.47;;;3.17;;
64619;SDS011;51029;51.058;13.826;2023-04-06T11:47:00;3.63;;;3.20;;
64619;SDS011;51029;51.058;13.826;2023-04-06T11:49:27;3.53;;;3.23;;
64619;SDS011;51029;51.058;13.826;2023-04-06T11:51:56;3.70;;;3.03;;
64619;SDS011;51029;51.058;13.826;2023-04-06T11:54:29;4.10;;;3.33;;
64619;SDS011;51029;51.058;13.826;2023-04-06T11:56:59;3.60;;;3.30;;
64619;SDS011;51029;51.058;13.826;2023-04-06T11:59:25;4.77;;;3.20;;
64619;SDS011;51029;51.058;13.826;2023-04-06T12:01:52;3.50;;;3.20;;
64619;SDS011;51029;51.058;13.826;2023-04-06T12:04:18;4.93;;;3.70;;
64619;SDS011;51029;51.058;13.826;2023-04-06T12:06:43;3.40;;;3.10;;
64619;SDS011;51029;51.058;13.826;2023-04-06T12:09:09;3.80;;;3.50;;
64619;SDS011;51029;51.058;13.826;2023-04-06T12:11:34;5.73;;;5.17;;
64619;SDS011;51029;51.058;13.826;2023-04-06T12:14:00;4.77;;;3.10;;
64619;SDS011;51029;51.058;13.826;2023-04-06T12:16:26;5.27;;;3.50;;
64619;SDS011;51029;51.058;13.826;2023-04-06T12:18:52;3.87;;;3.40;;
64619;SDS011;51029;51.058;13.826;2023-04-06T12:21:17;5.30;;;3.43;;
64619;SDS011;51029;51.058;13.826;2023-04-06T12:23:43;5.23;;;3.40;;
64619;SDS011;51029;51.058;13.826;2023-04-06T12:26:08;3.93;;;3.47;;
64619;SDS011;51029;51.058;13.826;2023-04-06T12:28:34;5.03;;;3.37;;
64619;SDS011;51029;51.058;13.826;2023-04-06T12:31:00;4.27;;;3.63;;
64619;SDS011;51029;51.058;13.826;2023-04-06T12:33:26;4.13;;;3.30;;
64619;SDS011;51029;51.058;13.826;2023-04-06T12:35:51;4.40;;;3.33;;
64619;SDS011;51029;51.058;13.826;2023-04-06T12:38:16;4.30;;;3.43;;
64619;SDS011;51029;51.058;13.826;2023-04-06T12:40:42;4.23;;;3.30;;
64619;SDS011;51029;51.058;13.826;2023-04-06T12:43:08;3.60;;;3.20;;
64619;SDS011;51029;51.058;13.826;2023-04-06T12:45:33;4.97;;;3.60;;
64619;SDS011;51029;51.058;13.826;2023-04-06T12:47:59;4.50;;;3.50;;
64619;SDS011;51029;51.058;13.826;2023-04-06T12:50:25;5.40;;;3.23;;
64619;SDS011;51029;51.058;13.826;2023-04-06T12:52:51;4.77;;;3.20;;
64619;SDS011;51029;51.058;13.826;2023-04-06T12:55:16;3.70;;;3.10;;
64619;SDS011;51029;51.058;13.826;2023-04-06T12:57:42;4.70;;;3.50;;
64619;SDS011;51029;51.058;13.826;2023-04-06T13:00:08;3.40;;;3.10;;
64619;SDS011;51029;51.058;13.826;2023-04-06T13:02:33;4.13;;;3.33;;
64619;SDS011;51029;51.058;13.826;2023-04-06T13:04:59;4.70;;;3.10;;
64619;SDS011;51029;51.058;13.826;2023-04-06T13:07:25;3.53;;;3.20;;
64619;SDS011;51029;51.058;13.826;2023-04-06T13:09:51;3.23;;;2.93;;
64619;SDS011;51029;51.058;13.826;2023-04-06T13:12:16;3.30;;;3.00;;
64619;SDS011;51029;51.058;13.826;2023-04-06T13:14:43;4.20;;;3.50;;
64619;SDS011;51029;51.058;13.826;2023-04-06T13:17:08;4.33;;;3.07;;
64619;SDS011;51029;51.058;13.826;2023-04-06T13:19:34;4.33;;;3.40;;
64619;SDS011;51029;51.058;13.826;2023-04-06T13:22:00;4.57;;;3.30;;
64619;SDS011;51029;51.058;13.826;2023-04-06T13:24:25;3.20;;;2.90;;
64619;SDS011;51029;51.058;13.826;2023-04-06T13:26:51;4.47;;;3.30;;
64619;SDS011;51029;51.058;13.826;2023-04-06T13:29:16;3.50;;;2.90;;
64619;SDS011;51029;51.058;13.826;2023-04-06T13:31:42;4.73;;;3.37;;
64619;SDS011;51029;51.058;13.826;2023-04-06T13:34:07;5.77;;;3.50;;
64619;SDS011;51029;51.058;13.826;2023-04-06T13:36:33;4.47;;;2.93;;
64619;SDS011;51029;51.058;13.826;2023-04-06T13:38:59;6.80;;;3.33;;
64619;SDS011;51029;51.058;13.826;2023-04-06T13:41:25;5.37;;;3.37;;
64619;SDS011;51029;51.058;13.826;2023-04-06T13:43:51;3.73;;;3.30;;
64619;SDS011;51029;51.058;13.826;2023-04-06T13:46:17;4.00;;;3.43;;
64619;SDS011;51029;51.058;13.826;2023-04-06T13:48:43;4.83;;;3.47;;
64619;SDS011;51029;51.058;13.826;2023-04-06T13:51:12;4.93;;;3.83;;
64619;SDS011;51029;51.058;13.826;2023-04-06T13:53:38;4.10;;;3.70;;
64619;SDS011;51029;51.058;13.826;2023-04-06T13:56:05;3.97;;;3.67;;
64619;SDS011;51029;51.058;13.826;2023-04-06T13:58:31;8.47;;;7.37;;
64619;SDS011;51029;51.058;13.826;2023-04-06T14:01:04;18.30;;;15.83;;
64619;SDS011;51029;51.058;13.826;2023-04-06T14:03:31;4.07;;;3.63;;
64619;SDS011;51029;51.058;13.826;2023-04-06T14:05:56;4.53;;;3.83;;
64619;SDS011;51029;51.058;13.826;2023-04-06T14:08:22;4.17;;;3.50;;
64619;SDS011;51029;51.058;13.826;2023-04-06T14:10:47;3.33;;;3.00;;
64619;SDS011;51029;51.058;13.826;2023-04-06T14:13:13;4.37;;;3.10;;
64619;SDS011;51029;51.058;13.826;2023-04-06T14:15:38;3.57;;;3.10;;
64619;SDS011;51029;51.058;13.826;2023-04-06T14:18:04;5.30;;;3.67;;
64619;SDS011;51029;51.058;13.826;2023-04-06T14:20:33;4.07;;;3.23;;
64619;SDS011;51029;51.058;13.826;2023-04-06T14:23:01;4.13;;;2.60;;
64619;SDS011;51029;51.058;13.826;2023-04-06T14:25:27;3.35;;;2.70;;
64619;SDS011;51029;51.058;13.826;2023-04-06T14:27:56;3.13;;;2.83;;
64619;SDS011;51029;51.058;13.826;2023-04-06T14:30:21;6.00;;;3.00;;
64619;SDS011;51029;51.058;13.826;2023-04-06T14:32:47;3.93;;;3.10;;
64619;SDS011;51029;51.058;13.826;2023-04-06T14:35:13;3.30;;;2.80;;